createdAt,value
2019-02-14T00:00:48.711Z,1016.17
2019-02-14T00:01:48.685Z,1016.09
2019-02-14T00:02:48.770Z,1016.14
2019-02-14T00:03:48.767Z,1016.11
2019-02-14T00:04:48.669Z,1016.10
2019-02-14T00:05:48.631Z,1016.11
2019-02-14T00:06:48.654Z,1016.16
2019-02-14T00:07:48.604Z,1016.11
2019-02-14T00:08:48.666Z,1016.16
2019-02-14T00:09:48.612Z,1016.16
2019-02-14T00:10:48.597Z,1016.14
2019-02-14T00:11:48.697Z,1016.14
2019-02-14T00:12:48.626Z,1016.11
2019-02-14T00:13:48.629Z,1016.07
2019-02-14T00:14:49.623Z,1016.09
2019-02-14T00:15:48.536Z,1016.06
2019-02-14T00:16:48.533Z,1016.08
2019-02-14T00:17:48.527Z,1016.10
2019-02-14T00:18:48.515Z,1016.04
2019-02-14T00:19:48.516Z,1016.13
2019-02-14T00:20:48.512Z,1016.11
2019-02-14T00:21:48.493Z,1016.10
2019-02-14T00:22:48.460Z,1016.12
2019-02-14T00:23:48.448Z,1016.07
2019-02-14T00:24:48.446Z,1016.13
2019-02-14T00:25:48.416Z,1016.09
2019-02-14T00:26:48.464Z,1016.13
2019-02-14T00:27:48.406Z,1016.09
2019-02-14T00:28:48.396Z,1016.05
2019-02-14T00:29:48.379Z,1016.02
2019-02-14T00:30:48.384Z,1016.03
2019-02-14T00:31:48.351Z,1015.96
2019-02-14T00:32:48.441Z,1016.00
2019-02-14T00:33:48.340Z,1015.98
2019-02-14T00:34:48.348Z,1016.03
2019-02-14T00:35:48.343Z,1016.00
2019-02-14T00:36:48.399Z,1015.96
2019-02-14T00:37:48.371Z,1016.02
2019-02-14T00:38:48.355Z,1016.04
2019-02-14T00:39:48.287Z,1016.01
2019-02-14T00:40:48.279Z,1016.06
2019-02-14T00:41:48.254Z,1016.03
2019-02-14T00:42:48.248Z,1016.04
2019-02-14T00:43:48.322Z,1016.02
2019-02-14T00:44:48.310Z,1016.03
2019-02-14T00:45:48.217Z,1016.00
2019-02-14T00:46:48.201Z,1015.97
2019-02-14T00:47:48.195Z,1015.96
2019-02-14T00:48:48.212Z,1015.99
2019-02-14T00:49:48.194Z,1015.99
2019-02-14T00:50:48.248Z,1016.06
2019-02-14T00:51:48.150Z,1015.98
2019-02-14T00:52:48.148Z,1016.02
2019-02-14T00:53:48.139Z,1015.98
2019-02-14T00:54:48.143Z,1015.97
2019-02-14T00:55:48.118Z,1015.90
2019-02-14T00:56:48.242Z,1015.90
2019-02-14T00:57:48.138Z,1015.88
2019-02-14T00:58:48.114Z,1015.91
2019-02-14T00:59:48.116Z,1015.94
2019-02-14T01:00:48.069Z,1015.91
2019-02-14T01:01:48.039Z,1015.91
2019-02-14T01:02:48.078Z,1015.92
2019-02-14T01:03:48.020Z,1015.91
2019-02-14T01:04:48.005Z,1015.95
2019-02-14T01:05:48.058Z,1015.93
2019-02-14T01:06:47.995Z,1015.92
2019-02-14T01:07:47.973Z,1015.91
2019-02-14T01:08:48.002Z,1015.93
2019-02-14T01:09:48.019Z,1015.93
2019-02-14T01:10:47.931Z,1015.98
2019-02-14T01:11:47.918Z,1016.01
2019-02-14T01:12:47.924Z,1016.05
2019-02-14T01:13:47.912Z,1015.99
2019-02-14T01:14:47.996Z,1016.05
2019-02-14T01:15:47.880Z,1016.02
2019-02-14T01:16:47.867Z,1016.03
2019-02-14T01:17:47.880Z,1016.04
2019-02-14T01:18:47.841Z,1016.04
2019-02-14T01:19:47.873Z,1016.12
2019-02-14T01:20:48.010Z,1016.05
2019-02-14T01:21:47.819Z,1016.07
2019-02-14T01:22:47.837Z,1016.10
2019-02-14T01:23:47.821Z,1016.07
2019-02-14T01:24:47.871Z,1016.04
2019-02-14T01:25:47.777Z,1016.05
2019-02-14T01:26:47.855Z,1016.08
2019-02-14T01:27:47.759Z,1016.10
2019-02-14T01:28:47.786Z,1016.00
2019-02-14T01:29:47.733Z,1016.03
2019-02-14T01:30:47.736Z,1016.03
2019-02-14T01:31:47.710Z,1015.98
2019-02-14T01:32:48.759Z,1015.97
2019-02-14T01:33:47.692Z,1016.00
2019-02-14T01:34:47.709Z,1016.00
2019-02-14T01:35:47.661Z,1016.04
2019-02-14T01:36:47.672Z,1015.98
2019-02-14T01:37:48.290Z,1016.06
2019-02-14T01:38:48.243Z,1016.08
2019-02-14T01:39:47.632Z,1016.05
2019-02-14T01:40:47.625Z,1016.01
2019-02-14T01:41:47.655Z,1016.06
2019-02-14T01:42:48.088Z,1016.03
2019-02-14T01:43:47.584Z,1016.03
2019-02-14T01:44:47.671Z,1016.02
2019-02-14T01:45:47.568Z,1015.99
2019-02-14T01:46:47.580Z,1016.05
2019-02-14T01:47:47.561Z,1016.00
2019-02-14T01:48:47.548Z,1016.00
2019-02-14T01:49:47.607Z,1016.03
2019-02-14T01:50:47.576Z,1016.04
2019-02-14T01:51:47.534Z,1016.03
2019-02-14T01:52:47.661Z,1016.04
2019-02-14T01:53:47.552Z,1016.04
2019-02-14T01:54:47.611Z,1016.02
2019-02-14T01:55:47.469Z,1016.07
2019-02-14T01:56:47.514Z,1016.06
2019-02-14T01:57:47.450Z,1016.06
2019-02-14T01:58:47.429Z,1016.12
2019-02-14T01:59:47.406Z,1016.07
2019-02-14T02:00:47.408Z,1016.07
2019-02-14T02:01:47.403Z,1016.07
2019-02-14T02:02:47.701Z,1016.11
2019-02-14T02:03:47.397Z,1016.04
2019-02-14T02:04:47.363Z,1016.09
2019-02-14T02:05:50.854Z,1016.08
2019-02-14T02:06:47.335Z,1016.05
2019-02-14T02:07:47.399Z,1016.09
2019-02-14T02:08:47.365Z,1016.08
2019-02-14T02:09:47.317Z,1016.03
2019-02-14T02:10:47.315Z,1016.03
2019-02-14T02:11:47.282Z,1015.99
2019-02-14T02:12:47.287Z,1015.97
2019-02-14T02:13:47.271Z,1015.98
2019-02-14T02:14:47.325Z,1015.93
2019-02-14T02:15:47.234Z,1015.95
2019-02-14T02:16:47.237Z,1015.90
2019-02-14T02:17:47.244Z,1015.92
2019-02-14T02:18:47.763Z,1015.93
2019-02-14T02:19:47.277Z,1015.91
2019-02-14T02:20:47.267Z,1015.91
2019-02-14T02:21:47.224Z,1015.89
2019-02-14T02:22:47.202Z,1015.91
2019-02-14T02:23:47.192Z,1015.91
2019-02-14T02:24:47.281Z,1015.92
2019-02-14T02:25:47.121Z,1015.88
2019-02-14T02:26:47.200Z,1015.86
2019-02-14T02:27:47.116Z,1015.85
2019-02-14T02:28:47.188Z,1015.84
2019-02-14T02:29:47.074Z,1015.84
2019-02-14T02:30:47.095Z,1015.87
2019-02-14T02:31:47.189Z,1015.88
2019-02-14T02:32:47.147Z,1015.89
2019-02-14T02:33:47.073Z,1015.87
2019-02-14T02:34:47.034Z,1015.91
2019-02-14T02:35:47.015Z,1015.91
2019-02-14T02:36:47.069Z,1015.93
2019-02-14T02:37:47.030Z,1015.91
2019-02-14T02:38:47.091Z,1015.90
2019-02-14T02:39:46.987Z,1015.87
2019-02-14T02:40:46.957Z,1015.89
2019-02-14T02:41:46.978Z,1015.91
2019-02-14T02:42:46.949Z,1015.86
2019-02-14T02:43:46.988Z,1015.88
2019-02-14T02:44:46.984Z,1015.89
2019-02-14T02:45:46.907Z,1015.93
2019-02-14T02:46:46.963Z,1015.94
2019-02-14T02:47:46.987Z,1015.94
2019-02-14T02:48:46.896Z,1015.96
2019-02-14T02:49:46.869Z,1015.99
2019-02-14T02:50:46.933Z,1016.01
2019-02-14T02:51:46.853Z,1016.01
2019-02-14T02:52:46.830Z,1016.02
2019-02-14T02:53:46.822Z,1015.98
2019-02-14T02:54:46.817Z,1015.90
2019-02-14T02:55:46.811Z,1015.96
2019-02-14T02:56:46.881Z,1015.98
2019-02-14T02:57:46.817Z,1015.94
2019-02-14T02:58:46.816Z,1015.95
2019-02-14T02:59:47.726Z,1015.84
2019-02-14T03:00:46.757Z,1015.87
2019-02-14T03:01:46.747Z,1015.82
2019-02-14T03:02:46.788Z,1015.87
2019-02-14T03:03:46.733Z,1015.87
2019-02-14T03:04:46.717Z,1015.83
2019-02-14T03:05:46.795Z,1015.84
2019-02-14T03:06:46.716Z,1015.86
2019-02-14T03:07:46.734Z,1015.84
2019-02-14T03:08:46.728Z,1015.81
2019-02-14T03:09:46.693Z,1015.83
2019-02-14T03:10:46.685Z,1015.87
2019-02-14T03:11:46.667Z,1015.83
2019-02-14T03:12:46.665Z,1015.89
2019-02-14T03:13:46.620Z,1015.93
2019-02-14T03:14:47.685Z,1015.87
2019-02-14T03:15:46.588Z,1015.86
2019-02-14T03:16:46.587Z,1015.85
2019-02-14T03:17:46.584Z,1015.86
2019-02-14T03:18:46.563Z,1015.86
2019-02-14T03:19:47.244Z,1015.86
2019-02-14T03:20:46.599Z,1015.86
2019-02-14T03:21:46.528Z,1015.83
2019-02-14T03:22:46.520Z,1015.80
2019-02-14T03:23:46.502Z,1015.81
2019-02-14T03:24:46.480Z,1015.82
2019-02-14T03:25:46.493Z,1015.85
2019-02-14T03:26:46.545Z,1015.86
2019-02-14T03:27:46.533Z,1015.88
2019-02-14T03:28:46.453Z,1015.91
2019-02-14T03:29:46.431Z,1015.95
2019-02-14T03:30:46.428Z,1015.89
2019-02-14T03:31:46.437Z,1015.92
2019-02-14T03:32:46.482Z,1015.92
2019-02-14T03:33:46.393Z,1015.90
2019-02-14T03:34:46.397Z,1015.94
2019-02-14T03:35:46.399Z,1015.95
2019-02-14T03:36:46.362Z,1015.97
2019-02-14T03:37:46.355Z,1015.93
2019-02-14T03:38:46.421Z,1015.91
2019-02-14T03:39:46.345Z,1015.93
2019-02-14T03:40:46.319Z,1015.90
2019-02-14T03:41:46.374Z,1015.88
2019-02-14T03:42:46.308Z,1015.85
2019-02-14T03:43:46.311Z,1015.90
2019-02-14T03:44:46.335Z,1015.89
2019-02-14T03:45:46.286Z,1015.88
2019-02-14T03:46:46.341Z,1015.92
2019-02-14T03:47:46.349Z,1015.87
2019-02-14T03:48:46.268Z,1015.87
2019-02-14T03:49:47.217Z,1015.88
2019-02-14T03:50:46.317Z,1015.85
2019-02-14T03:51:46.203Z,1015.90
2019-02-14T03:52:46.287Z,1015.90
2019-02-14T03:53:46.203Z,1015.91
2019-02-14T03:54:46.730Z,1015.94
2019-02-14T03:55:46.190Z,1015.94
2019-02-14T03:56:46.216Z,1016.00
2019-02-14T03:57:46.144Z,1016.02
2019-02-14T03:58:46.126Z,1015.97
2019-02-14T03:59:46.200Z,1015.99
2019-02-14T04:00:46.133Z,1016.00
2019-02-14T04:01:46.133Z,1015.99
2019-02-14T04:02:46.208Z,1015.91
2019-02-14T04:03:46.180Z,1015.94
2019-02-14T04:04:46.128Z,1015.99
2019-02-14T04:05:46.074Z,1016.01
2019-02-14T04:06:46.057Z,1015.98
2019-02-14T04:07:46.202Z,1016.02
2019-02-14T04:08:46.090Z,1015.95
2019-02-14T04:09:46.035Z,1016.05
2019-02-14T04:10:46.051Z,1016.04
2019-02-14T04:11:45.998Z,1016.03
2019-02-14T04:12:46.005Z,1016.01
2019-02-14T04:13:45.974Z,1016.00
2019-02-14T04:14:46.043Z,1015.96
2019-02-14T04:15:45.942Z,1016.00
2019-02-14T04:16:45.949Z,1016.01
2019-02-14T04:17:45.937Z,1016.00
2019-02-14T04:18:45.917Z,1015.96
2019-02-14T04:19:45.902Z,1016.01
2019-02-14T04:20:46.080Z,1016.00
2019-02-14T04:21:45.871Z,1015.97
2019-02-14T04:22:45.868Z,1016.04
2019-02-14T04:23:45.880Z,1016.01
2019-02-14T04:24:45.840Z,1016.06
2019-02-14T04:25:46.703Z,1016.05
2019-02-14T04:26:45.884Z,1016.08
2019-02-14T04:27:45.808Z,1016.18
2019-02-14T04:28:45.821Z,1016.11
2019-02-14T04:29:45.792Z,1016.15
2019-02-14T04:30:45.811Z,1016.14
2019-02-14T04:31:45.767Z,1016.10
2019-02-14T04:32:46.728Z,1016.07
2019-02-14T04:33:48.706Z,1016.11
2019-02-14T04:34:45.743Z,1016.09
2019-02-14T04:35:45.737Z,1016.12
2019-02-14T04:36:45.717Z,1016.16
2019-02-14T04:37:45.730Z,1016.16
2019-02-14T04:38:45.789Z,1016.18
2019-02-14T04:39:45.753Z,1016.18
2019-02-14T04:40:45.681Z,1016.18
2019-02-14T04:41:45.672Z,1016.19
2019-02-14T04:42:45.647Z,1016.16
2019-02-14T04:43:45.639Z,1016.22
2019-02-14T04:44:45.700Z,1016.21
2019-02-14T04:45:45.648Z,1016.21
2019-02-14T04:46:45.619Z,1016.28
2019-02-14T04:47:45.643Z,1016.27
2019-02-14T04:48:45.714Z,1016.29
2019-02-14T04:49:45.585Z,1016.27
2019-02-14T04:50:45.632Z,1016.29
2019-02-14T04:51:45.536Z,1016.25
2019-02-14T04:52:45.564Z,1016.28
2019-02-14T04:53:45.542Z,1016.24
2019-02-14T04:54:45.520Z,1016.26
2019-02-14T04:55:45.525Z,1016.26
2019-02-14T04:56:45.658Z,1016.30
2019-02-14T04:57:45.587Z,1016.35
2019-02-14T04:58:45.507Z,1016.30
2019-02-14T04:59:45.535Z,1016.36
2019-02-14T05:00:45.468Z,1016.32
2019-02-14T05:01:45.525Z,1016.33
2019-02-14T05:02:45.539Z,1016.35
2019-02-14T05:03:45.413Z,1016.33
2019-02-14T05:04:45.416Z,1016.32
2019-02-14T05:05:45.502Z,1016.32
2019-02-14T05:06:45.401Z,1016.32
2019-02-14T05:07:45.369Z,1016.37
2019-02-14T05:08:45.769Z,1016.31
2019-02-14T05:09:45.354Z,1016.34
2019-02-14T05:10:45.373Z,1016.34
2019-02-14T05:11:45.346Z,1016.37
2019-02-14T05:12:45.394Z,1016.40
2019-02-14T05:13:45.320Z,1016.35
2019-02-14T05:14:45.402Z,1016.36
2019-02-14T05:15:45.295Z,1016.39
2019-02-14T05:16:46.191Z,1016.42
2019-02-14T05:17:45.278Z,1016.37
2019-02-14T05:18:45.258Z,1016.33
2019-02-14T05:19:45.314Z,1016.32
2019-02-14T05:20:45.454Z,1016.37
2019-02-14T05:21:45.247Z,1016.35
2019-02-14T05:22:45.247Z,1016.37
2019-02-14T05:23:45.261Z,1016.39
2019-02-14T05:24:45.212Z,1016.40
2019-02-14T05:25:45.310Z,1016.34
2019-02-14T05:26:45.273Z,1016.35
2019-02-14T05:27:45.186Z,1016.31
2019-02-14T05:28:45.131Z,1016.34
2019-02-14T05:29:45.116Z,1016.39
2019-02-14T05:30:45.108Z,1016.33
2019-02-14T05:31:45.096Z,1016.31
2019-02-14T05:32:45.142Z,1016.32
2019-02-14T05:33:45.096Z,1016.27
2019-02-14T05:34:45.066Z,1016.29
2019-02-14T05:35:45.051Z,1016.31
2019-02-14T05:36:52.502Z,1016.30
2019-02-14T05:37:46.068Z,1016.27
2019-02-14T05:38:45.018Z,1016.26
2019-02-14T05:39:45.107Z,1016.34
2019-02-14T05:40:45.012Z,1016.33
2019-02-14T05:41:45.011Z,1016.26
2019-02-14T05:42:44.978Z,1016.30
2019-02-14T05:43:45.020Z,1016.26
2019-02-14T05:44:44.957Z,1016.31
2019-02-14T05:45:44.944Z,1016.32
2019-02-14T05:46:44.945Z,1016.20
2019-02-14T05:47:44.938Z,1016.26
2019-02-14T05:48:44.927Z,1016.25
2019-02-14T05:49:44.935Z,1016.30
2019-02-14T05:50:44.917Z,1016.23
2019-02-14T05:51:44.895Z,1016.29
2019-02-14T05:52:44.869Z,1016.31
2019-02-14T05:53:44.865Z,1016.28
2019-02-14T05:54:44.848Z,1016.28
2019-02-14T05:55:45.002Z,1016.30
2019-02-14T05:56:44.827Z,1016.28
2019-02-14T05:57:44.816Z,1016.30
2019-02-14T05:58:44.807Z,1016.30
2019-02-14T05:59:44.797Z,1016.30
2019-02-14T06:00:44.792Z,1016.32
2019-02-14T06:01:44.828Z,1016.34
2019-02-14T06:02:44.772Z,1016.34
2019-02-14T06:03:44.761Z,1016.35
2019-02-14T06:04:44.753Z,1016.31
2019-02-14T06:05:44.761Z,1016.34
2019-02-14T06:06:44.722Z,1016.29
2019-02-14T06:07:44.862Z,1016.27
2019-02-14T06:08:44.739Z,1016.28
2019-02-14T06:09:44.690Z,1016.26
2019-02-14T06:10:44.700Z,1016.27
2019-02-14T06:11:44.674Z,1016.29
2019-02-14T06:12:44.656Z,1016.26
2019-02-14T06:13:44.708Z,1016.28
2019-02-14T06:14:44.647Z,1016.28
2019-02-14T06:15:44.652Z,1016.31
2019-02-14T06:16:44.616Z,1016.31
2019-02-14T06:17:44.601Z,1016.33
2019-02-14T06:18:44.596Z,1016.35
2019-02-14T06:19:44.611Z,1016.27
2019-02-14T06:20:44.575Z,1016.32
2019-02-14T06:21:44.577Z,1016.31
2019-02-14T06:22:44.556Z,1016.30
2019-02-14T06:23:44.538Z,1016.29
2019-02-14T06:24:44.527Z,1016.34
2019-02-14T06:25:44.567Z,1016.32
2019-02-14T06:26:44.516Z,1016.40
2019-02-14T06:27:44.512Z,1016.36
2019-02-14T06:28:44.502Z,1016.40
2019-02-14T06:29:44.484Z,1016.42
2019-02-14T06:30:44.466Z,1016.48
2019-02-14T06:31:44.522Z,1016.40
2019-02-14T06:32:44.444Z,1016.43
2019-02-14T06:33:44.456Z,1016.47
2019-02-14T06:34:44.435Z,1016.48
2019-02-14T06:35:44.409Z,1016.47
2019-02-14T06:36:44.397Z,1016.48
2019-02-14T06:37:44.661Z,1016.53
2019-02-14T06:38:44.376Z,1016.50
2019-02-14T06:39:44.368Z,1016.53
2019-02-14T06:40:44.357Z,1016.50
2019-02-14T06:41:44.344Z,1016.55
2019-02-14T06:42:44.334Z,1016.52
2019-02-14T06:43:44.599Z,1016.52
2019-02-14T06:44:44.314Z,1016.58
2019-02-14T06:45:44.315Z,1016.55
2019-02-14T06:46:44.292Z,1016.59
2019-02-14T06:47:44.287Z,1016.57
2019-02-14T06:48:44.271Z,1016.57
2019-02-14T06:49:44.293Z,1016.57
2019-02-14T06:50:44.249Z,1016.62
2019-02-14T06:51:44.248Z,1016.64
2019-02-14T06:52:44.227Z,1016.64
2019-02-14T06:53:44.310Z,1016.68
2019-02-14T06:54:44.210Z,1016.67
2019-02-14T06:55:44.232Z,1016.70
2019-02-14T06:56:44.183Z,1016.70
2019-02-14T06:57:44.195Z,1016.69
2019-02-14T06:58:44.170Z,1016.75
2019-02-14T06:59:44.155Z,1016.74
2019-02-14T07:00:44.148Z,1016.80
2019-02-14T07:01:44.241Z,1016.79
2019-02-14T07:02:44.373Z,1016.76
2019-02-14T07:03:44.126Z,1016.83
2019-02-14T07:04:44.099Z,1016.81
2019-02-14T07:05:44.088Z,1016.85
2019-02-14T07:06:44.160Z,1016.83
2019-02-14T07:07:44.106Z,1016.78
2019-02-14T07:08:44.063Z,1016.83
2019-02-14T07:09:44.097Z,1016.94
2019-02-14T07:10:44.037Z,1016.94
2019-02-14T07:11:44.030Z,1017.00
2019-02-14T07:12:44.014Z,1017.04
2019-02-14T07:13:44.060Z,1017.07
2019-02-14T07:14:44.000Z,1017.08
2019-02-14T07:15:43.981Z,1017.12
2019-02-14T07:16:43.971Z,1017.10
2019-02-14T07:17:43.960Z,1017.10
2019-02-14T07:18:43.954Z,1017.09
2019-02-14T07:19:43.999Z,1017.13
2019-02-14T07:20:43.927Z,1017.11
2019-02-14T07:21:43.920Z,1017.14
2019-02-14T07:22:43.906Z,1017.15
2019-02-14T07:23:44.640Z,1017.15
2019-02-14T07:25:11.391Z,1017.14
2019-02-14T07:25:45.745Z,1017.17
2019-02-14T07:27:23.148Z,1017.19
2019-02-14T07:27:43.858Z,1017.20
2019-02-14T07:28:43.849Z,1017.17
2019-02-14T07:29:43.839Z,1017.16
2019-02-14T07:30:43.860Z,1017.21
2019-02-14T07:31:43.812Z,1017.15
2019-02-14T07:32:43.800Z,1017.18
2019-02-14T07:33:43.791Z,1017.19
2019-02-14T07:34:43.780Z,1017.21
2019-02-14T07:35:43.771Z,1017.19
2019-02-14T07:36:43.810Z,1017.19
2019-02-14T07:37:43.750Z,1017.13
2019-02-14T07:38:43.737Z,1017.08
2019-02-14T07:39:43.737Z,1017.05
2019-02-14T07:40:43.716Z,1017.11
2019-02-14T07:41:43.703Z,1017.12
2019-02-14T07:42:43.754Z,1017.03
2019-02-14T07:43:43.693Z,1017.06
2019-02-14T07:44:43.687Z,1017.11
2019-02-14T07:45:43.665Z,1017.10
2019-02-14T07:46:43.657Z,1017.10
2019-02-14T07:47:43.640Z,1017.04
2019-02-14T07:48:43.700Z,1017.06
2019-02-14T07:49:43.620Z,1017.06
2019-02-14T07:50:43.647Z,1017.07
2019-02-14T07:51:43.603Z,1017.08
2019-02-14T07:52:43.594Z,1017.13
2019-02-14T07:53:43.573Z,1017.06
2019-02-14T07:54:43.592Z,1017.09
2019-02-14T07:55:43.551Z,1017.14
2019-02-14T07:56:43.549Z,1017.07
2019-02-14T07:57:43.551Z,1017.06
2019-02-14T07:58:43.522Z,1017.06
2019-02-14T07:59:43.511Z,1017.05
2019-02-14T08:00:43.548Z,1017.06
2019-02-14T08:01:43.513Z,1017.02
2019-02-14T08:02:43.476Z,1017.02
2019-02-14T08:03:43.469Z,1017.03
2019-02-14T08:04:43.457Z,1017.00
2019-02-14T08:05:43.450Z,1017.01
2019-02-14T08:06:43.483Z,1017.09
2019-02-14T08:07:43.476Z,1017.06
2019-02-14T08:08:43.418Z,1017.12
2019-02-14T08:09:43.455Z,1017.04
2019-02-14T08:10:43.400Z,1017.03
2019-02-14T08:11:43.397Z,1017.02
2019-02-14T08:12:43.409Z,1017.05
2019-02-14T08:13:43.379Z,1017.04
2019-02-14T08:14:43.353Z,1017.06
2019-02-14T08:15:43.343Z,1017.08
2019-02-14T08:16:43.333Z,1017.02
2019-02-14T08:17:43.323Z,1017.06
2019-02-14T08:18:43.505Z,1017.02
2019-02-14T08:19:43.299Z,1017.02
2019-02-14T08:20:43.310Z,1017.01
2019-02-14T08:21:43.326Z,1017.00
2019-02-14T08:22:43.267Z,1017.02
2019-02-14T08:23:43.285Z,1017.00
2019-02-14T08:24:43.321Z,1016.94
2019-02-14T08:25:43.238Z,1017.02
2019-02-14T08:26:43.259Z,1016.97
2019-02-14T08:27:43.212Z,1016.99
2019-02-14T08:28:43.210Z,1017.00
2019-02-14T08:29:43.196Z,1016.99
2019-02-14T08:30:43.212Z,1017.02
2019-02-14T08:31:43.183Z,1017.01
2019-02-14T08:32:43.155Z,1016.97
2019-02-14T08:33:43.147Z,1017.00
2019-02-14T08:34:43.138Z,1017.03
2019-02-14T08:35:43.157Z,1017.05
2019-02-14T08:36:43.157Z,1017.00
2019-02-14T08:37:45.898Z,1016.95
2019-02-14T08:38:43.117Z,1016.92
2019-02-14T08:39:43.111Z,1016.90
2019-02-14T08:40:43.084Z,1016.89
2019-02-14T08:41:43.068Z,1016.89
2019-02-14T08:42:43.124Z,1016.93
2019-02-14T08:43:43.070Z,1016.93
2019-02-14T08:44:43.027Z,1016.84
2019-02-14T08:45:43.036Z,1016.87
2019-02-14T08:46:43.069Z,1016.80
2019-02-14T08:47:43.007Z,1016.80
2019-02-14T08:48:43.047Z,1016.80
2019-02-14T08:49:42.978Z,1016.79
2019-02-14T08:50:42.980Z,1016.76
2019-02-14T08:51:42.979Z,1016.81
2019-02-14T08:52:42.996Z,1016.78
2019-02-14T08:53:42.935Z,1016.81
2019-02-14T08:54:42.957Z,1016.79
2019-02-14T08:55:42.917Z,1016.81
2019-02-14T08:56:42.903Z,1016.84
2019-02-14T08:57:42.884Z,1016.80
2019-02-14T08:58:42.888Z,1016.81
2019-02-14T08:59:42.867Z,1016.84
2019-02-14T09:00:42.927Z,1016.86
2019-02-14T09:01:42.851Z,1016.80
2019-02-14T09:02:42.842Z,1016.83
2019-02-14T09:03:42.819Z,1016.81
2019-02-14T09:04:42.813Z,1016.80
2019-02-14T09:05:42.809Z,1016.78
2019-02-14T09:06:42.826Z,1016.82
2019-02-14T09:07:42.777Z,1016.78
2019-02-14T09:08:42.770Z,1016.83
2019-02-14T09:09:42.768Z,1016.74
2019-02-14T09:10:42.748Z,1016.78
2019-02-14T09:11:42.737Z,1016.83
2019-02-14T09:12:42.777Z,1016.84
2019-02-14T09:13:42.707Z,1016.85
2019-02-14T09:14:42.704Z,1016.82
2019-02-14T09:15:42.766Z,1016.86
2019-02-14T09:16:42.699Z,1016.81
2019-02-14T09:17:42.678Z,1016.85
2019-02-14T09:18:42.691Z,1016.85
2019-02-14T09:19:42.654Z,1016.84
2019-02-14T09:20:42.648Z,1016.77
2019-02-14T09:21:42.627Z,1016.74
2019-02-14T09:22:42.646Z,1016.75
2019-02-14T09:23:42.618Z,1016.75
2019-02-14T09:24:42.624Z,1016.78
2019-02-14T09:25:42.586Z,1016.76
2019-02-14T09:26:42.598Z,1016.75
2019-02-14T09:27:42.569Z,1016.72
2019-02-14T09:28:42.555Z,1016.74
2019-02-14T09:29:42.547Z,1016.75
2019-02-14T09:30:42.576Z,1016.75
2019-02-14T09:31:42.547Z,1016.76
2019-02-14T09:32:42.514Z,1016.76
2019-02-14T09:33:42.499Z,1016.78
2019-02-14T09:34:42.489Z,1016.69
2019-02-14T09:35:42.515Z,1016.78
2019-02-14T09:36:42.526Z,1016.75
2019-02-14T09:37:42.479Z,1016.76
2019-02-14T09:38:42.447Z,1016.75
2019-02-14T09:39:42.442Z,1016.79
2019-02-14T09:40:42.424Z,1016.77
2019-02-14T09:41:42.401Z,1016.76
2019-02-14T09:42:42.459Z,1016.79
2019-02-14T09:43:42.393Z,1016.78
2019-02-14T09:44:42.398Z,1016.79
2019-02-14T09:45:42.360Z,1016.83
2019-02-14T09:46:42.347Z,1016.81
2019-02-14T09:47:42.410Z,1016.77
2019-02-14T09:48:42.384Z,1016.83
2019-02-14T09:49:42.318Z,1016.87
2019-02-14T09:50:42.305Z,1016.88
2019-02-14T09:51:42.301Z,1016.88
2019-02-14T09:52:42.286Z,1016.91
2019-02-14T09:53:42.279Z,1016.97
2019-02-14T09:54:42.312Z,1016.89
2019-02-14T09:55:42.249Z,1016.90
2019-02-14T09:56:42.237Z,1016.89
2019-02-14T09:57:42.226Z,1016.89
2019-02-14T09:58:42.243Z,1016.92
2019-02-14T09:59:42.299Z,1016.94
2019-02-14T10:00:42.253Z,1016.89
2019-02-14T10:01:42.185Z,1016.88
2019-02-14T10:02:42.184Z,1016.87
2019-02-14T10:03:42.164Z,1016.91
2019-02-14T10:04:42.183Z,1016.89
2019-02-14T10:05:42.150Z,1016.92
2019-02-14T10:06:42.182Z,1016.88
2019-02-14T10:07:42.128Z,1016.91
2019-02-14T10:08:42.141Z,1016.87
2019-02-14T10:09:42.107Z,1016.90
2019-02-14T10:10:42.094Z,1016.88
2019-02-14T10:11:42.101Z,1016.89
2019-02-14T10:12:42.099Z,1016.91
2019-02-14T10:13:42.055Z,1016.87
2019-02-14T10:14:42.093Z,1016.87
2019-02-14T10:15:42.036Z,1016.82
2019-02-14T10:16:42.020Z,1016.92
2019-02-14T10:17:42.014Z,1016.91
2019-02-14T10:18:42.029Z,1016.87
2019-02-14T10:19:42.000Z,1016.91
2019-02-14T10:20:41.986Z,1016.86
2019-02-14T10:21:41.977Z,1016.80
2019-02-14T10:22:41.971Z,1016.79
2019-02-14T10:23:41.941Z,1016.79
2019-02-14T10:24:41.967Z,1016.78
2019-02-14T10:25:41.912Z,1016.76
2019-02-14T10:26:41.927Z,1016.75
2019-02-14T10:27:41.893Z,1016.80
2019-02-14T10:28:41.889Z,1016.77
2019-02-14T10:29:41.879Z,1016.73
2019-02-14T10:30:41.908Z,1016.73
2019-02-14T10:31:41.900Z,1016.73
2019-02-14T10:32:41.842Z,1016.73
2019-02-14T10:33:41.837Z,1016.65
2019-02-14T10:34:41.814Z,1016.64
2019-02-14T10:35:41.816Z,1016.67
2019-02-14T10:36:41.849Z,1016.72
2019-02-14T10:37:41.787Z,1016.70
2019-02-14T10:38:41.780Z,1016.64
2019-02-14T10:39:41.765Z,1016.68
2019-02-14T10:40:41.795Z,1016.69
2019-02-14T10:41:41.738Z,1016.70
2019-02-14T10:42:41.781Z,1016.71
2019-02-14T10:43:48.685Z,1016.70
2019-02-14T10:44:42.708Z,1016.75
2019-02-14T10:45:41.712Z,1016.75
2019-02-14T10:46:41.697Z,1016.74
2019-02-14T10:47:41.677Z,1016.67
2019-02-14T10:48:41.710Z,1016.69
2019-02-14T10:49:41.702Z,1016.64
2019-02-14T10:50:41.649Z,1016.63
2019-02-14T10:51:41.629Z,1016.61
2019-02-14T10:52:41.618Z,1016.60
2019-02-14T10:53:41.606Z,1016.56
2019-02-14T10:54:41.694Z,1016.52
2019-02-14T10:55:41.590Z,1016.53
2019-02-14T10:56:41.575Z,1016.55
2019-02-14T10:57:41.583Z,1016.49
2019-02-14T10:58:41.549Z,1016.52
2019-02-14T10:59:41.552Z,1016.52
2019-02-14T11:00:41.583Z,1016.50
2019-02-14T11:01:41.537Z,1016.53
2019-02-14T11:02:41.526Z,1016.49
2019-02-14T11:03:41.500Z,1016.46
2019-02-14T11:04:41.576Z,1016.49
2019-02-14T11:05:41.479Z,1016.53
2019-02-14T11:06:41.490Z,1016.45
2019-02-14T11:07:41.455Z,1016.44
2019-02-14T11:08:41.465Z,1016.45
2019-02-14T11:09:41.453Z,1016.46
2019-02-14T11:10:41.418Z,1016.44
2019-02-14T11:11:41.415Z,1016.47
2019-02-14T11:12:41.493Z,1016.44
2019-02-14T11:13:41.392Z,1016.42
2019-02-14T11:14:41.376Z,1016.43
2019-02-14T11:15:41.362Z,1016.38
2019-02-14T11:16:41.399Z,1016.39
2019-02-14T11:17:41.371Z,1016.37
2019-02-14T11:18:44.252Z,1016.36
2019-02-14T11:19:41.359Z,1016.34
2019-02-14T11:20:41.318Z,1016.27
2019-02-14T11:21:41.302Z,1016.31
2019-02-14T11:22:41.284Z,1016.26
2019-02-14T11:23:41.287Z,1016.26
2019-02-14T11:24:41.284Z,1016.28
2019-02-14T11:25:41.249Z,1016.25
2019-02-14T11:26:41.247Z,1016.27
2019-02-14T11:27:41.239Z,1016.13
2019-02-14T11:28:41.229Z,1016.14
2019-02-14T11:29:41.209Z,1016.13
2019-02-14T11:30:41.249Z,1016.13
2019-02-14T11:31:41.183Z,1016.14
2019-02-14T11:32:41.169Z,1016.13
2019-02-14T11:33:41.170Z,1016.13
2019-02-14T11:34:41.158Z,1016.11
2019-02-14T11:35:41.148Z,1016.13
2019-02-14T11:36:41.214Z,1016.12
2019-02-14T11:37:41.162Z,1016.13
2019-02-14T11:38:41.111Z,1016.16
2019-02-14T11:39:41.092Z,1016.10
2019-02-14T11:40:41.123Z,1016.16
2019-02-14T11:41:41.112Z,1016.16
2019-02-14T11:42:41.129Z,1016.13
2019-02-14T11:43:41.062Z,1016.15
2019-02-14T11:44:41.092Z,1016.13
2019-02-14T11:45:41.035Z,1016.12
2019-02-14T11:46:41.028Z,1016.11
2019-02-14T11:47:41.010Z,1016.13
2019-02-14T11:48:41.052Z,1016.13
2019-02-14T11:49:41.000Z,1016.13
2019-02-14T11:50:40.979Z,1016.07
2019-02-14T11:51:40.972Z,1016.04
2019-02-14T11:52:40.975Z,1016.09
2019-02-14T11:53:40.950Z,1016.09
2019-02-14T11:54:41.008Z,1016.06
2019-02-14T11:55:40.933Z,1016.08
2019-02-14T11:56:40.914Z,1016.06
2019-02-14T11:57:40.897Z,1016.07
2019-02-14T11:58:40.913Z,1016.08
2019-02-14T11:59:40.885Z,1016.08
2019-02-14T12:00:40.906Z,1016.08
2019-02-14T12:01:40.895Z,1016.08
2019-02-14T12:02:40.876Z,1016.06
2019-02-14T12:03:40.842Z,1016.03
2019-02-14T12:04:40.826Z,1015.98
2019-02-14T12:05:40.815Z,1015.97